sensor_id;sensor_type;location;lat;lon;timestamp;temperature;humidity
3069;DHT22;1545;51.728;8.796;2022-12-07T00:01:37;4.10;98.80
3069;DHT22;1545;51.728;8.796;2022-12-07T00:04:05;4.10;98.80
3069;DHT22;1545;51.728;8.796;2022-12-07T00:06:32;4.10;98.80
3069;DHT22;1545;51.728;8.796;2022-12-07T00:08:58;4.10;98.80
3069;DHT22;1545;51.728;8.796;2022-12-07T00:11:24;4.10;98.80
3069;DHT22;1545;51.728;8.796;2022-12-07T00:13:55;4.10;98.80
3069;DHT22;1545;51.728;8.796;2022-12-07T00:16:23;4.20;98.80
3069;DHT22;1545;51.728;8.796;2022-12-07T00:18:49;4.10;98.80
3069;DHT22;1545;51.728;8.796;2022-12-07T00:21:16;4.20;98.80
3069;DHT22;1545;51.728;8.796;2022-12-07T00:23:43;4.20;98.80
3069;DHT22;1545;51.728;8.796;2022-12-07T00:26:14;4.20;98.80
3069;DHT22;1545;51.728;8.796;2022-12-07T00:28:41;4.20;98.80
3069;DHT22;1545;51.728;8.796;2022-12-07T00:31:09;4.20;98.80
3069;DHT22;1545;51.728;8.796;2022-12-07T00:33:35;4.20;98.80
3069;DHT22;1545;51.728;8.796;2022-12-07T00:36:03;4.20;98.80
3069;DHT22;1545;51.728;8.796;2022-12-07T00:38:30;4.20;98.80
3069;DHT22;1545;51.728;8.796;2022-12-07T00:41:00;4.20;98.80
3069;DHT22;1545;51.728;8.796;2022-12-07T00:43:27;4.30;98.80
3069;DHT22;1545;51.728;8.796;2022-12-07T00:45:53;4.30;98.80
3069;DHT22;1545;51.728;8.796;2022-12-07T00:48:19;4.30;98.80
3069;DHT22;1545;51.728;8.796;2022-12-07T00:50:45;4.30;98.80
3069;DHT22;1545;51.728;8.796;2022-12-07T00:53:10;4.30;98.80
3069;DHT22;1545;51.728;8.796;2022-12-07T00:55:36;4.30;98.80
3069;DHT22;1545;51.728;8.796;2022-12-07T00:58:03;4.30;98.80
3069;DHT22;1545;51.728;8.796;2022-12-07T01:00:29;4.30;98.80
3069;DHT22;1545;51.728;8.796;2022-12-07T01:02:55;4.20;98.80
3069;DHT22;1545;51.728;8.796;2022-12-07T01:05:20;4.30;98.80
3069;DHT22;1545;51.728;8.796;2022-12-07T01:07:46;4.30;98.80
3069;DHT22;1545;51.728;8.796;2022-12-07T01:10:12;4.30;98.80
3069;DHT22;1545;51.728;8.796;2022-12-07T01:12:38;4.30;98.80
3069;DHT22;1545;51.728;8.796;2022-12-07T01:15:04;4.30;98.80
3069;DHT22;1545;51.728;8.796;2022-12-07T01:17:30;4.30;98.80
3069;DHT22;1545;51.728;8.796;2022-12-07T01:19:55;4.30;98.80
3069;DHT22;1545;51.728;8.796;2022-12-07T01:22:20;4.30;98.80
3069;DHT22;1545;51.728;8.796;2022-12-07T01:24:46;4.30;98.80
3069;DHT22;1545;51.728;8.796;2022-12-07T01:27:13;4.30;98.80
3069;DHT22;1545;51.728;8.796;2022-12-07T01:29:39;4.30;98.80
3069;DHT22;1545;51.728;8.796;2022-12-07T01:32:05;4.30;98.80
3069;DHT22;1545;51.728;8.796;2022-12-07T01:34:30;4.30;98.80
3069;DHT22;1545;51.728;8.796;2022-12-07T01:36:56;4.30;98.80
3069;DHT22;1545;51.728;8.796;2022-12-07T01:39:22;4.30;98.80
3069;DHT22;1545;51.728;8.796;2022-12-07T01:41:47;4.30;98.80
3069;DHT22;1545;51.728;8.796;2022-12-07T01:46:54;4.40;98.80
3069;DHT22;1545;51.728;8.796;2022-12-07T01:49:35;4.40;98.80
3069;DHT22;1545;51.728;8.796;2022-12-07T01:54:32;4.40;98.80
3069;DHT22;1545;51.728;8.796;2022-12-07T01:56:58;4.40;98.80
3069;DHT22;1545;51.728;8.796;2022-12-07T01:59:25;4.50;98.80
3069;DHT22;1545;51.728;8.796;2022-12-07T02:01:52;4.50;98.80
3069;DHT22;1545;51.728;8.796;2022-12-07T02:04:19;4.50;98.80
3069;DHT22;1545;51.728;8.796;2022-12-07T02:06:46;4.50;98.80
3069;DHT22;1545;51.728;8.796;2022-12-07T02:09:12;4.50;98.80
3069;DHT22;1545;51.728;8.796;2022-12-07T02:11:38;4.50;98.80
3069;DHT22;1545;51.728;8.796;2022-12-07T02:14:04;4.50;98.80
3069;DHT22;1545;51.728;8.796;2022-12-07T02:16:36;4.50;98.80
3069;DHT22;1545;51.728;8.796;2022-12-07T02:19:35;4.50;98.80
3069;DHT22;1545;51.728;8.796;2022-12-07T02:22:34;4.50;98.80
3069;DHT22;1545;51.728;8.796;2022-12-07T02:28:27;4.50;98.80
3069;DHT22;1545;51.728;8.796;2022-12-07T02:30:58;4.50;98.80
3069;DHT22;1545;51.728;8.796;2022-12-07T02:33:44;4.50;98.80
3069;DHT22;1545;51.728;8.796;2022-12-07T02:36:18;4.50;98.80
3069;DHT22;1545;51.728;8.796;2022-12-07T02:39:11;4.60;98.80
3069;DHT22;1545;51.728;8.796;2022-12-07T02:41:44;4.60;98.80
3069;DHT22;1545;51.728;8.796;2022-12-07T02:44:14;4.60;98.80
3069;DHT22;1545;51.728;8.796;2022-12-07T02:46:44;4.60;98.80
3069;DHT22;1545;51.728;8.796;2022-12-07T02:49:10;4.60;98.80
3069;DHT22;1545;51.728;8.796;2022-12-07T02:51:41;4.60;98.80
3069;DHT22;1545;51.728;8.796;2022-12-07T02:54:13;4.60;98.80
3069;DHT22;1545;51.728;8.796;2022-12-07T02:56:40;4.60;98.80
3069;DHT22;1545;51.728;8.796;2022-12-07T03:08:17;4.60;98.80
3069;DHT22;1545;51.728;8.796;2022-12-07T03:10:50;4.60;98.80
3069;DHT22;1545;51.728;8.796;2022-12-07T03:16:17;4.60;98.80
3069;DHT22;1545;51.728;8.796;2022-12-07T03:18:53;4.60;98.80
3069;DHT22;1545;51.728;8.796;2022-12-07T03:21:26;4.60;98.80
3069;DHT22;1545;51.728;8.796;2022-12-07T03:23:56;4.60;98.80
3069;DHT22;1545;51.728;8.796;2022-12-07T03:26:29;4.60;98.80
3069;DHT22;1545;51.728;8.796;2022-12-07T03:28:59;4.60;98.80
3069;DHT22;1545;51.728;8.796;2022-12-07T03:31:31;4.60;98.80
3069;DHT22;1545;51.728;8.796;2022-12-07T03:36:59;4.60;98.80
3069;DHT22;1545;51.728;8.796;2022-12-07T03:39:33;4.50;98.80
3069;DHT22;1545;51.728;8.796;2022-12-07T03:42:00;4.60;98.80
3069;DHT22;1545;51.728;8.796;2022-12-07T03:44:28;4.50;98.80
3069;DHT22;1545;51.728;8.796;2022-12-07T03:47:01;4.50;98.80
3069;DHT22;1545;51.728;8.796;2022-12-07T03:49:48;4.50;98.80
3069;DHT22;1545;51.728;8.796;2022-12-07T03:52:22;4.50;98.80
3069;DHT22;1545;51.728;8.796;2022-12-07T03:55:11;4.50;98.80
3069;DHT22;1545;51.728;8.796;2022-12-07T03:57:41;4.50;98.80
3069;DHT22;1545;51.728;8.796;2022-12-07T04:00:09;4.50;98.80
3069;DHT22;1545;51.728;8.796;2022-12-07T04:02:35;4.60;98.80
3069;DHT22;1545;51.728;8.796;2022-12-07T04:05:02;4.60;98.80
3069;DHT22;1545;51.728;8.796;2022-12-07T04:07:28;4.50;98.80
3069;DHT22;1545;51.728;8.796;2022-12-07T04:09:53;4.50;98.80
3069;DHT22;1545;51.728;8.796;2022-12-07T04:12:20;4.50;98.80
3069;DHT22;1545;51.728;8.796;2022-12-07T04:14:46;4.50;98.80
3069;DHT22;1545;51.728;8.796;2022-12-07T04:17:12;4.50;98.80
3069;DHT22;1545;51.728;8.796;2022-12-07T04:19:37;4.50;98.80
3069;DHT22;1545;51.728;8.796;2022-12-07T04:22:04;4.50;98.80
3069;DHT22;1545;51.728;8.796;2022-12-07T04:24:30;4.40;98.80
3069;DHT22;1545;51.728;8.796;2022-12-07T04:26:56;4.50;98.80
3069;DHT22;1545;51.728;8.796;2022-12-07T04:29:22;4.50;98.80
3069;DHT22;1545;51.728;8.796;2022-12-07T04:31:48;4.40;98.80
3069;DHT22;1545;51.728;8.796;2022-12-07T04:34:14;4.40;98.80
3069;DHT22;1545;51.728;8.796;2022-12-07T04:36:41;4.40;98.80
3069;DHT22;1545;51.728;8.796;2022-12-07T04:39:09;4.30;98.80
3069;DHT22;1545;51.728;8.796;2022-12-07T04:41:38;4.30;98.80
3069;DHT22;1545;51.728;8.796;2022-12-07T04:44:04;4.30;98.80
3069;DHT22;1545;51.728;8.796;2022-12-07T04:46:33;4.30;98.80
3069;DHT22;1545;51.728;8.796;2022-12-07T04:48:59;4.30;98.80
3069;DHT22;1545;51.728;8.796;2022-12-07T04:51:27;4.40;98.80
3069;DHT22;1545;51.728;8.796;2022-12-07T04:53:54;4.30;98.80
3069;DHT22;1545;51.728;8.796;2022-12-07T04:56:20;4.40;98.80
3069;DHT22;1545;51.728;8.796;2022-12-07T04:58:47;4.30;98.80
3069;DHT22;1545;51.728;8.796;2022-12-07T05:01:14;4.30;98.80
3069;DHT22;1545;51.728;8.796;2022-12-07T05:03:40;4.30;98.80
3069;DHT22;1545;51.728;8.796;2022-12-07T05:06:06;4.20;98.80
3069;DHT22;1545;51.728;8.796;2022-12-07T05:08:33;4.20;98.80
3069;DHT22;1545;51.728;8.796;2022-12-07T05:10:59;4.30;98.80
3069;DHT22;1545;51.728;8.796;2022-12-07T05:13:25;4.20;98.80
3069;DHT22;1545;51.728;8.796;2022-12-07T05:15:50;4.20;98.80
3069;DHT22;1545;51.728;8.796;2022-12-07T05:18:16;4.30;98.80
3069;DHT22;1545;51.728;8.796;2022-12-07T05:20:42;4.20;98.80
3069;DHT22;1545;51.728;8.796;2022-12-07T05:23:08;4.20;98.80
3069;DHT22;1545;51.728;8.796;2022-12-07T05:25:34;4.30;98.80
3069;DHT22;1545;51.728;8.796;2022-12-07T05:27:59;4.30;98.80
3069;DHT22;1545;51.728;8.796;2022-12-07T05:30:27;4.30;98.80
3069;DHT22;1545;51.728;8.796;2022-12-07T05:32:52;4.20;98.80
3069;DHT22;1545;51.728;8.796;2022-12-07T05:35:18;4.20;98.80
3069;DHT22;1545;51.728;8.796;2022-12-07T05:37:44;4.20;98.80
3069;DHT22;1545;51.728;8.796;2022-12-07T05:40:10;4.20;98.80
3069;DHT22;1545;51.728;8.796;2022-12-07T05:42:36;4.10;98.80
3069;DHT22;1545;51.728;8.796;2022-12-07T05:45:03;4.10;98.80
3069;DHT22;1545;51.728;8.796;2022-12-07T05:47:28;4.10;98.80
3069;DHT22;1545;51.728;8.796;2022-12-07T05:49:54;4.00;98.80
3069;DHT22;1545;51.728;8.796;2022-12-07T05:52:19;4.10;98.80
3069;DHT22;1545;51.728;8.796;2022-12-07T05:54:45;4.10;98.80
3069;DHT22;1545;51.728;8.796;2022-12-07T05:57:10;4.10;98.80
3069;DHT22;1545;51.728;8.796;2022-12-07T05:59:36;4.00;98.80
3069;DHT22;1545;51.728;8.796;2022-12-07T06:02:09;4.00;98.80
3069;DHT22;1545;51.728;8.796;2022-12-07T06:04:37;3.90;98.80
3069;DHT22;1545;51.728;8.796;2022-12-07T06:07:03;4.00;98.80
3069;DHT22;1545;51.728;8.796;2022-12-07T06:09:29;3.90;98.80
3069;DHT22;1545;51.728;8.796;2022-12-07T06:11:55;3.90;98.80
3069;DHT22;1545;51.728;8.796;2022-12-07T06:14:40;4.00;98.80
3069;DHT22;1545;51.728;8.796;2022-12-07T06:17:05;4.00;98.80
3069;DHT22;1545;51.728;8.796;2022-12-07T06:19:31;4.00;98.80
3069;DHT22;1545;51.728;8.796;2022-12-07T06:21:57;4.10;98.80
3069;DHT22;1545;51.728;8.796;2022-12-07T06:24:22;4.10;98.80
3069;DHT22;1545;51.728;8.796;2022-12-07T06:26:48;4.10;98.80
3069;DHT22;1545;51.728;8.796;2022-12-07T06:29:13;4.20;98.80
3069;DHT22;1545;51.728;8.796;2022-12-07T06:31:39;4.20;98.80
3069;DHT22;1545;51.728;8.796;2022-12-07T06:34:08;4.20;98.80
3069;DHT22;1545;51.728;8.796;2022-12-07T06:36:34;4.20;98.80
3069;DHT22;1545;51.728;8.796;2022-12-07T06:38:59;4.20;98.80
3069;DHT22;1545;51.728;8.796;2022-12-07T06:41:25;4.20;98.80
3069;DHT22;1545;51.728;8.796;2022-12-07T06:43:51;4.20;98.80
3069;DHT22;1545;51.728;8.796;2022-12-07T06:46:17;4.10;98.80
3069;DHT22;1545;51.728;8.796;2022-12-07T06:48:43;4.10;98.80
3069;DHT22;1545;51.728;8.796;2022-12-07T06:51:09;4.10;98.80
3069;DHT22;1545;51.728;8.796;2022-12-07T06:53:35;4.10;98.80
3069;DHT22;1545;51.728;8.796;2022-12-07T06:56:00;4.10;98.80
3069;DHT22;1545;51.728;8.796;2022-12-07T06:58:26;4.10;98.80
3069;DHT22;1545;51.728;8.796;2022-12-07T07:00:52;4.10;98.80
3069;DHT22;1545;51.728;8.796;2022-12-07T07:03:17;4.10;98.80
3069;DHT22;1545;51.728;8.796;2022-12-07T07:05:43;4.10;98.80
3069;DHT22;1545;51.728;8.796;2022-12-07T07:08:10;4.10;98.80
3069;DHT22;1545;51.728;8.796;2022-12-07T07:10:36;4.00;98.80
3069;DHT22;1545;51.728;8.796;2022-12-07T07:13:02;4.00;98.80
3069;DHT22;1545;51.728;8.796;2022-12-07T07:15:28;4.00;98.80
3069;DHT22;1545;51.728;8.796;2022-12-07T07:17:54;4.00;98.80
3069;DHT22;1545;51.728;8.796;2022-12-07T07:20:19;4.00;98.80
3069;DHT22;1545;51.728;8.796;2022-12-07T07:22:45;4.00;98.80
3069;DHT22;1545;51.728;8.796;2022-12-07T07:25:10;3.90;98.80
3069;DHT22;1545;51.728;8.796;2022-12-07T07:27:36;3.90;98.80
3069;DHT22;1545;51.728;8.796;2022-12-07T07:30:02;4.00;98.80
3069;DHT22;1545;51.728;8.796;2022-12-07T07:32:28;4.00;98.80
3069;DHT22;1545;51.728;8.796;2022-12-07T07:34:53;3.90;98.80
3069;DHT22;1545;51.728;8.796;2022-12-07T07:37:19;4.00;98.80
3069;DHT22;1545;51.728;8.796;2022-12-07T07:39:44;3.90;98.80
3069;DHT22;1545;51.728;8.796;2022-12-07T07:42:10;3.90;98.80
3069;DHT22;1545;51.728;8.796;2022-12-07T07:44:35;3.90;98.80
3069;DHT22;1545;51.728;8.796;2022-12-07T07:47:02;3.90;98.80
3069;DHT22;1545;51.728;8.796;2022-12-07T07:49:27;4.00;98.80
3069;DHT22;1545;51.728;8.796;2022-12-07T07:51:53;3.90;98.80
3069;DHT22;1545;51.728;8.796;2022-12-07T07:54:18;4.00;98.80
3069;DHT22;1545;51.728;8.796;2022-12-07T07:56:44;4.00;98.80
3069;DHT22;1545;51.728;8.796;2022-12-07T07:59:09;3.90;98.80
3069;DHT22;1545;51.728;8.796;2022-12-07T08:01:35;3.90;98.80
3069;DHT22;1545;51.728;8.796;2022-12-07T08:04:00;3.90;98.80
3069;DHT22;1545;51.728;8.796;2022-12-07T08:06:26;3.90;98.80
3069;DHT22;1545;51.728;8.796;2022-12-07T08:08:52;3.90;98.80
3069;DHT22;1545;51.728;8.796;2022-12-07T08:11:18;3.90;98.80
3069;DHT22;1545;51.728;8.796;2022-12-07T08:13:45;4.00;98.80
3069;DHT22;1545;51.728;8.796;2022-12-07T08:16:12;4.10;98.80
3069;DHT22;1545;51.728;8.796;2022-12-07T08:18:40;4.10;98.80
3069;DHT22;1545;51.728;8.796;2022-12-07T08:21:08;4.10;98.80
3069;DHT22;1545;51.728;8.796;2022-12-07T08:23:34;4.00;98.80
3069;DHT22;1545;51.728;8.796;2022-12-07T08:26:01;4.00;98.80
3069;DHT22;1545;51.728;8.796;2022-12-07T08:28:28;4.00;98.80
3069;DHT22;1545;51.728;8.796;2022-12-07T08:30:59;4.10;98.80
3069;DHT22;1545;51.728;8.796;2022-12-07T08:33:25;4.00;98.80
3069;DHT22;1545;51.728;8.796;2022-12-07T08:35:51;4.00;98.80
3069;DHT22;1545;51.728;8.796;2022-12-07T08:38:16;4.00;98.80
3069;DHT22;1545;51.728;8.796;2022-12-07T08:40:42;4.00;98.80
3069;DHT22;1545;51.728;8.796;2022-12-07T08:43:08;4.00;98.80
3069;DHT22;1545;51.728;8.796;2022-12-07T08:45:33;4.00;98.80
3069;DHT22;1545;51.728;8.796;2022-12-07T08:48:09;3.90;98.80
3069;DHT22;1545;51.728;8.796;2022-12-07T08:50:36;3.90;98.80
3069;DHT22;1545;51.728;8.796;2022-12-07T08:53:03;3.90;98.80
3069;DHT22;1545;51.728;8.796;2022-12-07T08:55:30;3.90;98.80
3069;DHT22;1545;51.728;8.796;2022-12-07T08:58:00;3.90;98.80
3069;DHT22;1545;51.728;8.796;2022-12-07T09:00:27;4.00;98.80
3069;DHT22;1545;51.728;8.796;2022-12-07T09:02:53;4.00;98.80
3069;DHT22;1545;51.728;8.796;2022-12-07T09:05:19;4.00;98.80
3069;DHT22;1545;51.728;8.796;2022-12-07T09:07:48;4.00;98.80
3069;DHT22;1545;51.728;8.796;2022-12-07T09:10:17;4.10;98.80
3069;DHT22;1545;51.728;8.796;2022-12-07T09:12:42;4.00;98.80
3069;DHT22;1545;51.728;8.796;2022-12-07T09:15:08;4.10;98.80
3069;DHT22;1545;51.728;8.796;2022-12-07T09:17:35;4.10;98.80
3069;DHT22;1545;51.728;8.796;2022-12-07T09:20:01;4.10;98.80
3069;DHT22;1545;51.728;8.796;2022-12-07T09:22:30;4.20;98.80
3069;DHT22;1545;51.728;8.796;2022-12-07T09:24:59;4.20;98.80
3069;DHT22;1545;51.728;8.796;2022-12-07T09:27:26;4.20;98.80
3069;DHT22;1545;51.728;8.796;2022-12-07T09:29:52;4.20;98.80
3069;DHT22;1545;51.728;8.796;2022-12-07T09:32:17;4.20;98.80
3069;DHT22;1545;51.728;8.796;2022-12-07T09:34:43;4.10;98.80
3069;DHT22;1545;51.728;8.796;2022-12-07T09:37:09;4.20;98.80
3069;DHT22;1545;51.728;8.796;2022-12-07T09:39:38;4.20;98.80
3069;DHT22;1545;51.728;8.796;2022-12-07T09:42:04;4.20;98.80
3069;DHT22;1545;51.728;8.796;2022-12-07T09:44:31;4.20;98.80
3069;DHT22;1545;51.728;8.796;2022-12-07T09:46:56;4.20;98.80
3069;DHT22;1545;51.728;8.796;2022-12-07T09:49:24;4.20;98.80
3069;DHT22;1545;51.728;8.796;2022-12-07T09:52:20;4.30;98.80
3069;DHT22;1545;51.728;8.796;2022-12-07T09:54:50;4.30;98.80
3069;DHT22;1545;51.728;8.796;2022-12-07T09:57:17;4.40;98.80
3069;DHT22;1545;51.728;8.796;2022-12-07T09:59:45;4.50;98.80
3069;DHT22;1545;51.728;8.796;2022-12-07T10:04:51;4.60;98.80
3069;DHT22;1545;51.728;8.796;2022-12-07T10:07:16;4.70;98.80
3069;DHT22;1545;51.728;8.796;2022-12-07T10:09:42;4.80;98.80
3069;DHT22;1545;51.728;8.796;2022-12-07T10:12:11;4.90;98.80
3069;DHT22;1545;51.728;8.796;2022-12-07T10:14:51;5.10;98.80
3069;DHT22;1545;51.728;8.796;2022-12-07T10:17:33;5.20;98.50
3069;DHT22;1545;51.728;8.796;2022-12-07T10:22:37;5.00;98.20
3069;DHT22;1545;51.728;8.796;2022-12-07T10:25:18;5.10;98.10
3069;DHT22;1545;51.728;8.796;2022-12-07T10:27:57;5.10;98.00
3069;DHT22;1545;51.728;8.796;2022-12-07T10:30:23;5.10;97.90
3069;DHT22;1545;51.728;8.796;2022-12-07T10:32:49;5.10;98.10
3069;DHT22;1545;51.728;8.796;2022-12-07T10:35:24;5.10;98.20
3069;DHT22;1545;51.728;8.796;2022-12-07T10:37:53;5.10;98.50
3069;DHT22;1545;51.728;8.796;2022-12-07T10:40:33;5.10;98.20
3069;DHT22;1545;51.728;8.796;2022-12-07T10:43:14;5.00;98.10
3069;DHT22;1545;51.728;8.796;2022-12-07T11:01:44;5.00;98.80
3069;DHT22;1545;51.728;8.796;2022-12-07T11:10:04;5.20;98.60
3069;DHT22;1545;51.728;8.796;2022-12-07T11:13:01;5.30;98.20
3069;DHT22;1545;51.728;8.796;2022-12-07T11:18:14;5.50;97.70
3069;DHT22;1545;51.728;8.796;2022-12-07T11:32:20;5.60;96.30
3069;DHT22;1545;51.728;8.796;2022-12-07T11:37:28;5.60;96.30
3069;DHT22;1545;51.728;8.796;2022-12-07T11:40:00;5.60;96.00
3069;DHT22;1545;51.728;8.796;2022-12-07T11:43:35;5.50;95.80
3069;DHT22;1545;51.728;8.796;2022-12-07T11:45:39;5.50;96.20
3069;DHT22;1545;51.728;8.796;2022-12-07T11:50:50;5.40;96.20
3069;DHT22;1545;51.728;8.796;2022-12-07T11:53:27;5.40;96.20
3069;DHT22;1545;51.728;8.796;2022-12-07T11:58:54;5.50;96.50
3069;DHT22;1545;51.728;8.796;2022-12-07T12:06:45;5.60;95.90
3069;DHT22;1545;51.728;8.796;2022-12-07T12:17:56;5.70;95.10
3069;DHT22;1545;51.728;8.796;2022-12-07T12:20:35;5.60;95.00
3069;DHT22;1545;51.728;8.796;2022-12-07T12:23:19;5.60;95.40
3069;DHT22;1545;51.728;8.796;2022-12-07T12:25:54;5.60;95.50
3069;DHT22;1545;51.728;8.796;2022-12-07T12:28:32;5.70;95.70
3069;DHT22;1545;51.728;8.796;2022-12-07T12:33:31;5.80;95.10
3069;DHT22;1545;51.728;8.796;2022-12-07T12:39:07;5.90;94.30
3069;DHT22;1545;51.728;8.796;2022-12-07T12:47:04;5.80;94.10
3069;DHT22;1545;51.728;8.796;2022-12-07T12:49:38;5.80;94.00
3069;DHT22;1545;51.728;8.796;2022-12-07T12:54:38;5.90;93.10
3069;DHT22;1545;51.728;8.796;2022-12-07T13:12:59;5.80;92.70
3069;DHT22;1545;51.728;8.796;2022-12-07T13:21:01;5.80;93.50
3069;DHT22;1545;51.728;8.796;2022-12-07T13:29:18;5.60;93.60
3069;DHT22;1545;51.728;8.796;2022-12-07T13:31:56;5.50;93.20
3069;DHT22;1545;51.728;8.796;2022-12-07T13:34:41;5.50;92.80
3069;DHT22;1545;51.728;8.796;2022-12-07T13:37:46;5.50;93.70
3069;DHT22;1545;51.728;8.796;2022-12-07T13:40:21;5.40;93.70
3069;DHT22;1545;51.728;8.796;2022-12-07T13:42:47;5.40;93.60
3069;DHT22;1545;51.728;8.796;2022-12-07T13:45:28;5.30;94.00
3069;DHT22;1545;51.728;8.796;2022-12-07T13:50:57;5.30;94.80
3069;DHT22;1545;51.728;8.796;2022-12-07T13:53:24;5.30;95.00
3069;DHT22;1545;51.728;8.796;2022-12-07T13:55:50;5.30;95.10
3069;DHT22;1545;51.728;8.796;2022-12-07T13:58:16;5.40;95.10
3069;DHT22;1545;51.728;8.796;2022-12-07T14:00:42;5.30;95.00
3069;DHT22;1545;51.728;8.796;2022-12-07T14:05:37;5.20;95.20
3069;DHT22;1545;51.728;8.796;2022-12-07T14:13:32;5.20;95.40
3069;DHT22;1545;51.728;8.796;2022-12-07T14:16:02;5.20;95.20
3069;DHT22;1545;51.728;8.796;2022-12-07T14:18:40;5.20;95.50
3069;DHT22;1545;51.728;8.796;2022-12-07T14:23:37;5.10;96.00
3069;DHT22;1545;51.728;8.796;2022-12-07T14:26:14;5.20;96.20
3069;DHT22;1545;51.728;8.796;2022-12-07T14:28:42;5.20;95.80
3069;DHT22;1545;51.728;8.796;2022-12-07T14:31:13;5.10;96.10
3069;DHT22;1545;51.728;8.796;2022-12-07T14:33:39;5.10;96.40
3069;DHT22;1545;51.728;8.796;2022-12-07T14:36:07;5.00;96.50
3069;DHT22;1545;51.728;8.796;2022-12-07T14:38:33;5.00;96.60
3069;DHT22;1545;51.728;8.796;2022-12-07T14:40:59;5.00;96.90
3069;DHT22;1545;51.728;8.796;2022-12-07T14:43:45;5.00;97.00
3069;DHT22;1545;51.728;8.796;2022-12-07T14:46:10;5.10;97.10
3069;DHT22;1545;51.728;8.796;2022-12-07T14:48:36;5.10;96.80
3069;DHT22;1545;51.728;8.796;2022-12-07T14:51:02;5.00;96.50
3069;DHT22;1545;51.728;8.796;2022-12-07T14:53:36;5.00;96.60
3069;DHT22;1545;51.728;8.796;2022-12-07T14:56:02;5.00;96.60
3069;DHT22;1545;51.728;8.796;2022-12-07T14:58:30;4.90;96.50
3069;DHT22;1545;51.728;8.796;2022-12-07T15:00:56;4.90;96.80
3069;DHT22;1545;51.728;8.796;2022-12-07T15:03:21;4.80;96.90
3069;DHT22;1545;51.728;8.796;2022-12-07T15:05:47;4.90;97.10
3069;DHT22;1545;51.728;8.796;2022-12-07T15:08:12;4.80;97.00
3069;DHT22;1545;51.728;8.796;2022-12-07T15:10:38;4.80;97.00
3069;DHT22;1545;51.728;8.796;2022-12-07T15:13:05;4.80;97.10
3069;DHT22;1545;51.728;8.796;2022-12-07T15:15:54;4.80;97.00
3069;DHT22;1545;51.728;8.796;2022-12-07T15:18:21;4.80;97.20
3069;DHT22;1545;51.728;8.796;2022-12-07T15:20:47;4.70;97.30
3069;DHT22;1545;51.728;8.796;2022-12-07T15:23:13;4.70;97.40
3069;DHT22;1545;51.728;8.796;2022-12-07T15:25:42;4.70;97.70
3069;DHT22;1545;51.728;8.796;2022-12-07T15:28:08;4.60;98.00
3069;DHT22;1545;51.728;8.796;2022-12-07T15:30:33;4.60;98.20
3069;DHT22;1545;51.728;8.796;2022-12-07T15:32:59;4.50;98.50
3069;DHT22;1545;51.728;8.796;2022-12-07T15:35:25;4.40;98.80
3069;DHT22;1545;51.728;8.796;2022-12-07T15:37:50;4.40;98.80
3069;DHT22;1545;51.728;8.796;2022-12-07T15:40:16;4.40;98.80
3069;DHT22;1545;51.728;8.796;2022-12-07T15:42:41;4.40;98.80
3069;DHT22;1545;51.728;8.796;2022-12-07T15:45:08;4.30;98.80
3069;DHT22;1545;51.728;8.796;2022-12-07T15:47:39;4.30;98.80
3069;DHT22;1545;51.728;8.796;2022-12-07T15:50:11;4.30;98.80
3069;DHT22;1545;51.728;8.796;2022-12-07T15:52:37;4.30;98.80
3069;DHT22;1545;51.728;8.796;2022-12-07T15:55:04;4.30;98.80
3069;DHT22;1545;51.728;8.796;2022-12-07T15:57:33;4.30;98.80
3069;DHT22;1545;51.728;8.796;2022-12-07T15:59:59;4.30;98.80
3069;DHT22;1545;51.728;8.796;2022-12-07T16:02:25;4.30;98.80
3069;DHT22;1545;51.728;8.796;2022-12-07T16:04:51;4.20;98.80
3069;DHT22;1545;51.728;8.796;2022-12-07T16:07:17;4.20;98.80
3069;DHT22;1545;51.728;8.796;2022-12-07T16:09:44;4.20;98.80
3069;DHT22;1545;51.728;8.796;2022-12-07T16:12:10;4.20;98.80
3069;DHT22;1545;51.728;8.796;2022-12-07T16:14:37;4.20;98.80
3069;DHT22;1545;51.728;8.796;2022-12-07T16:17:03;4.10;98.80
3069;DHT22;1545;51.728;8.796;2022-12-07T16:19:30;4.10;98.80
3069;DHT22;1545;51.728;8.796;2022-12-07T16:21:55;4.10;98.80
3069;DHT22;1545;51.728;8.796;2022-12-07T16:24:21;4.10;98.80
3069;DHT22;1545;51.728;8.796;2022-12-07T16:26:48;4.10;98.80
3069;DHT22;1545;51.728;8.796;2022-12-07T16:29:14;4.20;98.80
3069;DHT22;1545;51.728;8.796;2022-12-07T16:31:40;4.10;98.80
3069;DHT22;1545;51.728;8.796;2022-12-07T16:34:06;4.10;98.80
3069;DHT22;1545;51.728;8.796;2022-12-07T16:36:31;4.10;98.80
3069;DHT22;1545;51.728;8.796;2022-12-07T16:39:01;4.00;98.80
3069;DHT22;1545;51.728;8.796;2022-12-07T16:41:27;4.00;98.80
3069;DHT22;1545;51.728;8.796;2022-12-07T16:43:52;3.90;98.80
3069;DHT22;1545;51.728;8.796;2022-12-07T16:46:18;4.00;98.80
3069;DHT22;1545;51.728;8.796;2022-12-07T16:48:44;4.00;98.80
3069;DHT22;1545;51.728;8.796;2022-12-07T16:51:11;4.00;98.80
3069;DHT22;1545;51.728;8.796;2022-12-07T16:53:39;4.00;98.80
3069;DHT22;1545;51.728;8.796;2022-12-07T16:56:13;4.00;98.80
3069;DHT22;1545;51.728;8.796;2022-12-07T16:58:42;4.00;98.80
3069;DHT22;1545;51.728;8.796;2022-12-07T17:01:12;4.00;98.80
3069;DHT22;1545;51.728;8.796;2022-12-07T17:03:38;4.00;98.80
3069;DHT22;1545;51.728;8.796;2022-12-07T17:06:14;4.00;98.80
3069;DHT22;1545;51.728;8.796;2022-12-07T17:08:40;4.00;98.80
3069;DHT22;1545;51.728;8.796;2022-12-07T17:11:14;3.90;98.80
3069;DHT22;1545;51.728;8.796;2022-12-07T17:13:41;3.90;98.80
3069;DHT22;1545;51.728;8.796;2022-12-07T17:16:25;3.90;98.80
3069;DHT22;1545;51.728;8.796;2022-12-07T17:18:51;3.90;98.80
3069;DHT22;1545;51.728;8.796;2022-12-07T17:21:17;3.80;98.80
3069;DHT22;1545;51.728;8.796;2022-12-07T17:23:43;3.90;98.80
3069;DHT22;1545;51.728;8.796;2022-12-07T17:26:11;3.90;98.80
3069;DHT22;1545;51.728;8.796;2022-12-07T17:28:38;3.90;98.80
3069;DHT22;1545;51.728;8.796;2022-12-07T17:31:08;3.80;98.80
3069;DHT22;1545;51.728;8.796;2022-12-07T17:33:34;3.80;98.80
3069;DHT22;1545;51.728;8.796;2022-12-07T17:36:00;3.70;98.80
3069;DHT22;1545;51.728;8.796;2022-12-07T17:38:27;3.70;98.80
3069;DHT22;1545;51.728;8.796;2022-12-07T17:40:53;3.70;98.80
3069;DHT22;1545;51.728;8.796;2022-12-07T17:43:19;3.70;98.80
3069;DHT22;1545;51.728;8.796;2022-12-07T17:45:44;3.70;98.80
3069;DHT22;1545;51.728;8.796;2022-12-07T17:48:10;3.80;98.80
3069;DHT22;1545;51.728;8.796;2022-12-07T17:50:38;3.80;98.80
3069;DHT22;1545;51.728;8.796;2022-12-07T17:53:22;3.80;98.80
3069;DHT22;1545;51.728;8.796;2022-12-07T17:55:48;3.90;98.80
3069;DHT22;1545;51.728;8.796;2022-12-07T17:58:17;3.90;98.80
3069;DHT22;1545;51.728;8.796;2022-12-07T18:00:42;3.90;98.80
3069;DHT22;1545;51.728;8.796;2022-12-07T18:03:08;3.90;98.80
3069;DHT22;1545;51.728;8.796;2022-12-07T18:05:36;4.00;98.80
3069;DHT22;1545;51.728;8.796;2022-12-07T18:08:03;4.00;98.80
3069;DHT22;1545;51.728;8.796;2022-12-07T18:10:28;3.90;98.80
3069;DHT22;1545;51.728;8.796;2022-12-07T18:12:54;4.00;98.80
3069;DHT22;1545;51.728;8.796;2022-12-07T18:15:39;4.00;98.80
3069;DHT22;1545;51.728;8.796;2022-12-07T18:18:05;4.00;98.80
3069;DHT22;1545;51.728;8.796;2022-12-07T18:20:31;4.00;98.80
3069;DHT22;1545;51.728;8.796;2022-12-07T18:22:56;4.00;98.80
3069;DHT22;1545;51.728;8.796;2022-12-07T18:25:22;4.00;98.80
3069;DHT22;1545;51.728;8.796;2022-12-07T18:27:47;4.10;98.80
3069;DHT22;1545;51.728;8.796;2022-12-07T18:30:13;4.10;98.80
3069;DHT22;1545;51.728;8.796;2022-12-07T18:32:39;4.10;98.80
3069;DHT22;1545;51.728;8.796;2022-12-07T18:35:04;4.10;98.80
3069;DHT22;1545;51.728;8.796;2022-12-07T18:37:30;4.10;98.80
3069;DHT22;1545;51.728;8.796;2022-12-07T18:39:57;4.10;98.80
3069;DHT22;1545;51.728;8.796;2022-12-07T18:42:23;4.10;98.80
3069;DHT22;1545;51.728;8.796;2022-12-07T18:44:48;4.10;98.80
3069;DHT22;1545;51.728;8.796;2022-12-07T18:47:14;4.20;98.80